Ofertas de vuelos a Natal

Encontranos en
En el mes de
SalidaRegresoDíasConexionesDisponibilidadDisp.
Sab 23/01/20212021-01-23Sab 13/02/20212021-02-1321ConexionesVer disponibilidad>01https://an.despegar.com/ad/1040?q=shop%2Fflights%2Fresults%2Froundtrip%2FBUE%2FNAT%2F2021-01-23%2F2021-02-13%2F1%2F0%2F0
Sab 06/02/20212021-02-06Sab 13/02/20212021-02-137ConexionesVer disponibilidad>02https://an.despegar.com/ad/1040?q=shop%2Fflights%2Fresults%2Froundtrip%2FBUE%2FNAT%2F2021-02-06%2F2021-02-13%2F1%2F0%2F0
Sab 06/02/20212021-02-06Lun 15/02/20212021-02-159ConexionesVer disponibilidad>02https://an.despegar.com/ad/1040?q=shop%2Fflights%2Fresults%2Froundtrip%2FBUE%2FNAT%2F2021-02-06%2F2021-02-15%2F1%2F0%2F0
Sab 06/02/20212021-02-06Sab 27/02/20212021-02-2721ConexionesVer disponibilidad>02https://an.despegar.com/ad/1040?q=shop%2Fflights%2Fresults%2Froundtrip%2FBUE%2FNAT%2F2021-02-06%2F2021-02-27%2F1%2F0%2F0
Sab 06/02/20212021-02-06Dom 14/02/20212021-02-148ConexionesVer disponibilidad>02https://an.despegar.com/ad/1040?q=shop%2Fflights%2Fresults%2Froundtrip%2FBUE%2FNAT%2F2021-02-06%2F2021-02-14%2F1%2F0%2F0
Jue 11/02/20212021-02-11Dom 21/02/20212021-02-2110ConexionesVer disponibilidad>02https://an.despegar.com/ad/1040?q=shop%2Fflights%2Fresults%2Froundtrip%2FBUE%2FNAT%2F2021-02-11%2F2021-02-21%2F1%2F0%2F0
Sab 13/02/20212021-02-13Sab 20/02/20212021-02-207ConexionesVer disponibilidad>02https://an.despegar.com/ad/1040?q=shop%2Fflights%2Fresults%2Froundtrip%2FBUE%2FNAT%2F2021-02-13%2F2021-02-20%2F1%2F0%2F0
Dom 28/02/20212021-02-28Dom 14/03/20212021-03-1414ConexionesVer disponibilidad>02https://an.despegar.com/ad/1040?q=shop%2Fflights%2Fresults%2Froundtrip%2FBUE%2FNAT%2F2021-02-28%2F2021-03-14%2F1%2F0%2F0
Dom 28/02/20212021-02-28Mie 10/03/20212021-03-1010ConexionesVer disponibilidad>02https://an.despegar.com/ad/1040?q=shop%2Fflights%2Fresults%2Froundtrip%2FBUE%2FNAT%2F2021-02-28%2F2021-03-10%2F1%2F0%2F0
Lun 01/03/20212021-03-01Lun 15/03/20212021-03-1514ConexionesVer disponibilidad>03https://an.despegar.com/ad/1040?q=shop%2Fflights%2Fresults%2Froundtrip%2FBUE%2FNAT%2F2021-03-01%2F2021-03-15%2F1%2F0%2F0
Lun 01/03/20212021-03-01Mie 10/03/20212021-03-109ConexionesVer disponibilidad>03https://an.despegar.com/ad/1040?q=shop%2Fflights%2Fresults%2Froundtrip%2FBUE%2FNAT%2F2021-03-01%2F2021-03-10%2F1%2F0%2F0
Mar 02/03/20212021-03-02Sab 13/03/20212021-03-1311ConexionesVer disponibilidad>03https://an.despegar.com/ad/1040?q=shop%2Fflights%2Fresults%2Froundtrip%2FBUE%2FNAT%2F2021-03-02%2F2021-03-13%2F1%2F0%2F0
Lun 08/03/20212021-03-08Dom 14/03/20212021-03-146ConexionesVer disponibilidad>03https://an.despegar.com/ad/1040?q=shop%2Fflights%2Fresults%2Froundtrip%2FBUE%2FNAT%2F2021-03-08%2F2021-03-14%2F1%2F0%2F0
Mie 10/03/20212021-03-10Mie 17/03/20212021-03-177ConexionesVer disponibilidad>03https://an.despegar.com/ad/1040?q=shop%2Fflights%2Fresults%2Froundtrip%2FBUE%2FNAT%2F2021-03-10%2F2021-03-17%2F1%2F0%2F0
Dom 14/03/20212021-03-14Dom 28/03/20212021-03-2814ConexionesVer disponibilidad>03https://an.despegar.com/ad/1040?q=shop%2Fflights%2Fresults%2Froundtrip%2FBUE%2FNAT%2F2021-03-14%2F2021-03-28%2F1%2F0%2F0
Jue 01/04/20212021-04-01Dom 11/04/20212021-04-1110ConexionesVer disponibilidad>04https://an.despegar.com/ad/1040?q=shop%2Fflights%2Fresults%2Froundtrip%2FBUE%2FNAT%2F2021-04-01%2F2021-04-11%2F1%2F0%2F0
Sab 10/04/20212021-04-10Mar 20/04/20212021-04-2010ConexionesVer disponibilidad>04https://an.despegar.com/ad/1040?q=shop%2Fflights%2Fresults%2Froundtrip%2FBUE%2FNAT%2F2021-04-10%2F2021-04-20%2F1%2F0%2F0
Sab 17/04/20212021-04-17Mar 27/04/20212021-04-2710ConexionesVer disponibilidad>04https://an.despegar.com/ad/1040?q=shop%2Fflights%2Fresults%2Froundtrip%2FBUE%2FNAT%2F2021-04-17%2F2021-04-27%2F1%2F0%2F0
Sab 01/05/20212021-05-01Sab 15/05/20212021-05-1514ConexionesVer disponibilidad>05https://an.despegar.com/ad/1040?q=shop%2Fflights%2Fresults%2Froundtrip%2FBUE%2FNAT%2F2021-05-01%2F2021-05-15%2F1%2F0%2F0
Sab 01/05/20212021-05-01Mie 12/05/20212021-05-1211ConexionesVer disponibilidad>05https://an.despegar.com/ad/1040?q=shop%2Fflights%2Fresults%2Froundtrip%2FBUE%2FNAT%2F2021-05-01%2F2021-05-12%2F1%2F0%2F0
Sab 15/05/20212021-05-15Mie 26/05/20212021-05-2611ConexionesVer disponibilidad>05https://an.despegar.com/ad/1040?q=shop%2Fflights%2Fresults%2Froundtrip%2FBUE%2FNAT%2F2021-05-15%2F2021-05-26%2F1%2F0%2F0
Sab 15/05/20212021-05-15Sab 22/05/20212021-05-227ConexionesVer disponibilidad>05https://an.despegar.com/ad/1040?q=shop%2Fflights%2Fresults%2Froundtrip%2FBUE%2FNAT%2F2021-05-15%2F2021-05-22%2F1%2F0%2F0
Mar 01/06/20212021-06-01Dom 27/06/20212021-06-2726ConexionesVer disponibilidad>06https://an.despegar.com/ad/1040?q=shop%2Fflights%2Fresults%2Froundtrip%2FBUE%2FNAT%2F2021-06-01%2F2021-06-27%2F1%2F0%2F0
Sab 05/06/20212021-06-05Dom 20/06/20212021-06-2015ConexionesVer disponibilidad>06https://an.despegar.com/ad/1040?q=shop%2Fflights%2Fresults%2Froundtrip%2FBUE%2FNAT%2F2021-06-05%2F2021-06-20%2F1%2F0%2F0
Lun 21/06/20212021-06-21Dom 27/06/20212021-06-276ConexionesVer disponibilidad>06https://an.despegar.com/ad/1040?q=shop%2Fflights%2Fresults%2Froundtrip%2FBUE%2FNAT%2F2021-06-21%2F2021-06-27%2F1%2F0%2F0

Es posible que la disponibilidad de vuelos hacia este destino se vea afectada debido al COVID-19. Si es tu caso, te invitamos a realizar una nueva búsqueda a través de este link.

Asistencia al viajero

Cotiza tu ASSIST CARD

Origen
Destino

Información general sobre Natal

Natal, que en español significa Navidad, es una ciudad brasileña localizada en el estado de Rio Grande do Norte. Atravesada por el río Potengi, la capital nordestina cuenta con playas, dunas y diferentes atracciones históricas. Anualmente recibe a dos millones de turistas y es la puerta de entrada hacia otros importantes destinos del estado.

Pasajes Aéreos y Vuelos Baratos a Natal

Descargá gratis nuestra nueva app para Android y iOS.
Suscribite a las notificaciones de Chrome y Safari.
Seguinos en Facebook, Twitter e Instagram
Suscribite a nuestro newsletter aquí.